Tawakoni's Hourly Summary for Thursday, April 20, 2017
Hour Temp
(f)
RH
(%)
Solar Rad.
(MJ/m2)
Rainfall
(in)
Wind
(mph)
4/20/2017 12:00 AM 69 84 0 0 6.4
4/20/2017 1:00 AM 69 88 0 0 7.23
4/20/2017 2:00 AM 68 89 0 0 6.22
4/20/2017 3:00 AM 68 90 0 0 5.36
4/20/2017 4:00 AM 67 92 0 0 6.03
4/20/2017 5:00 AM 67 91 0 0 8.05
4/20/2017 6:00 AM 67 89 0 0 7.66
4/20/2017 7:00 AM 68 88 0.01 0 6.55
4/20/2017 8:00 AM 68 91 0.12 0 5.75
4/20/2017 9:00 AM 69 86 0.44 0 5.83
4/20/2017 10:00 AM 70 82 0.54 0 6.57
4/20/2017 11:00 AM 72 72 0.94 0 6.46
4/20/2017 12:00 PM 73 73 1.19 0 4.99
4/20/2017 1:00 PM 75 65 2.19 0 5.91
4/20/2017 2:00 PM 77 59 2.85 0 6.56
4/20/2017 3:00 PM 79 54 2.82 0 7.5
4/20/2017 4:00 PM 80 51 2.03 0 6.66
4/20/2017 5:00 PM 79 55 1.34 0 6.02
4/20/2017 6:00 PM 80 52 1.37 0 5.7
4/20/2017 7:00 PM 79 55 0.68 0 4.36
4/20/2017 8:00 PM 77 58 0.21 0 1.67
4/20/2017 9:00 PM 70 77 0 0 0.36
4/20/2017 10:00 PM 69 82 0 0 2.51
4/20/2017 11:00 PM 68 84 0 0 1.62
Data Summary 72 75 16.73 0.00 5.50